Time;durP1;ratioP1;P1;durP2;ratioP2;P2;SDS_P1;SDS_P2;PMS_P1;PMS_P2;Temp;Humidity;BMP_temperature;BMP_pressure;BME280_temperature;BME280_humidity;BME280_pressure;Samples;Min_cycle;Max_cycle;Signal;HPM_P1;HPM_P2
2022/06/28 00:08:19;;;;;;;0.20;0.00;;;22.70;99.90;;;;;;21220837;28;20519;-70
2022/06/28 00:18:24;;;;;;;0.20;0.00;;;22.60;99.90;;;;;;21220097;28;20282;-69
2022/06/28 00:28:28;;;;;;;0.20;0.00;;;22.40;99.90;;;;;;21221828;28;20263;-69
2022/06/28 00:38:33;;;;;;;0.20;0.00;;;22.40;99.90;;;;;;21236463;28;20245;-70
2022/06/28 00:48:37;;;;;;;0.20;0.00;;;22.30;99.90;;;;;;21234297;28;20229;-70
2022/06/28 00:58:43;;;;;;;0.20;0.00;;;22.30;99.90;;;;;;21234553;28;20234;-69
2022/06/28 01:08:47;;;;;;;0.20;0.00;;;22.30;99.90;;;;;;21233593;28;20302;-70
2022/06/28 01:18:53;;;;;;;0.20;0.00;;;22.50;99.90;;;;;;21233183;28;20254;-69
2022/06/28 01:28:58;;;;;;;0.20;0.00;;;22.70;99.90;;;;;;21231471;28;20192;-70
2022/06/28 01:39:02;;;;;;;0.20;0.00;;;23.00;99.90;;;;;;21228982;28;20274;-68
2022/06/28 01:49:08;;;;;;;0.20;0.00;;;23.10;99.90;;;;;;21229087;28;20263;-69
2022/06/28 01:59:12;;;;;;;0.20;0.00;;;23.00;99.90;;;;;;21227442;28;20282;-70
2022/06/28 02:09:18;;;;;;;0.20;0.10;;;22.60;99.90;;;;;;21228803;28;20268;-69
2022/06/28 02:19:21;;;;;;;0.20;0.00;;;22.40;99.90;;;;;;21226863;28;20242;-70
2022/06/28 02:29:27;;;;;;;0.20;0.00;;;22.40;99.90;;;;;;21227009;28;20476;-69
2022/06/28 02:49:53;;;;;;;0.20;0.00;;;22.10;99.90;;;;;;21221697;28;20211;-69
2022/06/28 02:59:56;;;;;;;0.20;0.00;;;22.00;99.90;;;;;;21224717;28;20238;-69
2022/06/28 03:10:02;;;;;;;0.20;0.00;;;21.80;99.90;;;;;;21221021;28;20942;-69
2022/06/28 03:20:07;;;;;;;0.20;0.00;;;21.60;99.90;;;;;;21221209;28;20247;-70
2022/06/28 03:30:12;;;;;;;0.20;0.00;;;21.70;99.90;;;;;;21222397;28;20211;-69
2022/06/28 03:40:16;;;;;;;0.20;0.00;;;21.70;99.90;;;;;;21222202;28;20242;-69
2022/06/28 03:50:21;;;;;;;0.20;0.00;;;21.60;99.90;;;;;;21220163;28;20210;-70
2022/06/28 04:00:25;;;;;;;0.20;0.00;;;21.50;99.90;;;;;;21221204;28;20280;-68
2022/06/28 04:10:30;;;;;;;0.20;0.00;;;21.40;99.90;;;;;;21235602;28;20222;-69
2022/06/28 04:20:36;;;;;;;0.20;0.00;;;21.60;99.90;;;;;;21234968;28;20290;-69
2022/06/28 04:30:41;;;;;;;0.20;0.00;;;21.50;99.90;;;;;;21234834;28;20211;-69
2022/06/28 04:40:44;;;;;;;0.20;0.00;;;21.40;99.90;;;;;;21233774;28;20246;-69
2022/06/28 04:50:50;;;;;;;0.20;0.10;;;21.20;99.90;;;;;;21232291;28;20195;-70
2022/06/28 05:00:53;;;;;;;0.20;0.10;;;20.90;99.90;;;;;;21231786;28;20279;-69
2022/06/28 05:11:17;;;;;;;0.20;0.00;;;20.90;99.90;;;;;;21232396;28;20271;-68
2022/06/28 05:21:21;;;;;;;0.20;0.00;;;21.10;99.90;;;;;;21229911;28;20310;-68
2022/06/28 05:31:26;;;;;;;0.20;0.00;;;21.30;99.90;;;;;;21229160;28;20187;-68
2022/06/28 05:41:31;;;;;;;0.20;0.00;;;21.70;99.90;;;;;;21228246;28;20219;-69
2022/06/28 05:51:37;;;;;;;0.20;0.00;;;21.90;99.90;;;;;;21226642;28;20215;-69
2022/06/28 06:01:40;;;;;;;0.20;0.00;;;22.20;99.90;;;;;;21225617;28;20238;-69
2022/06/28 06:11:47;;;;;;;0.20;0.00;;;22.80;99.90;;;;;;21225137;28;20201;-69
2022/06/28 06:21:57;;;;;;;0.20;0.00;;;23.00;99.90;;;;;;21222394;28;20290;-70
2022/06/28 06:32:02;;;;;;;0.20;0.10;;;22.80;99.90;;;;;;21223973;28;20255;-69
2022/06/28 06:42:06;;;;;;;0.20;0.00;;;22.90;99.90;;;;;;21219778;28;20219;-70
2022/06/28 06:52:11;;;;;;;0.20;0.00;;;23.20;99.90;;;;;;21220536;28;20195;-70
2022/06/28 07:02:15;;;;;;;0.20;0.10;;;23.50;99.90;;;;;;21219486;28;20241;-69
2022/06/28 07:12:20;;;;;;;0.20;0.00;;;23.90;99.90;;;;;;21216972;28;20225;-69
2022/06/28 07:22:24;;;;;;;0.20;0.00;;;23.90;99.90;;;;;;21217888;28;21031;-69
2022/06/28 07:32:29;;;;;;;0.20;0.00;;;24.20;99.90;;;;;;21218225;28;20215;-69
2022/06/28 07:42:33;;;;;;;0.20;0.08;;;24.50;99.90;;;;;;21232492;28;20258;-70
2022/06/28 07:52:39;;;;;;;0.20;0.10;;;24.50;99.90;;;;;;21235270;28;20206;-68
2022/06/28 08:02:43;;;;;;;0.20;0.00;;;25.10;99.90;;;;;;21234354;28;20456;-68
2022/06/28 08:12:48;;;;;;;0.20;0.00;;;25.30;99.90;;;;;;21234966;28;20210;-70
2022/06/28 08:22:52;;;;;;;0.20;0.00;;;25.20;99.90;;;;;;21236203;28;20231;-69
2022/06/28 08:32:57;;;;;;;0.20;0.00;;;25.60;99.90;;;;;;21232840;28;20194;-70
2022/06/28 08:43:06;;;;;;;0.20;0.00;;;26.10;99.90;;;;;;21232485;28;20195;-69
2022/06/28 08:53:11;;;;;;;0.20;0.00;;;26.00;99.90;;;;;;21232654;28;20222;-70
2022/06/28 09:03:16;;;;;;;0.20;0.00;;;26.00;99.90;;;;;;21230974;28;20229;-72
2022/06/28 09:13:21;;;;;;;0.20;0.00;;;26.30;99.90;;;;;;21231770;28;20237;-71
2022/06/28 09:23:28;;;;;;;0.20;0.10;;;25.90;99.90;;;;;;21229687;28;20290;-69
2022/06/28 09:33:33;;;;;;;0.20;0.00;;;25.60;99.90;;;;;;21230806;28;20310;-74
2022/06/28 09:43:37;;;;;;;0.20;0.00;;;25.50;99.90;;;;;;21224864;28;20214;-71
2022/06/28 09:53:44;;;;;;;0.20;0.00;;;25.60;99.90;;;;;;21227140;28;20244;-71
2022/06/28 10:04:09;;;;;;;0.20;0.00;;;26.00;99.90;;;;;;21225315;28;20211;-72
2022/06/28 10:24:51;;;;;;;0.20;0.00;;;26.60;99.90;;;;;;21226004;28;20230;-70
2022/06/28 10:34:56;;;;;;;0.20;0.10;;;27.00;99.90;;;;;;21223484;28;21196;-72
2022/06/28 10:45:00;;;;;;;0.20;0.10;;;27.90;99.90;;;;;;21220254;28;20199;-72
2022/06/28 10:55:27;;;;;;;0.20;0.00;;;27.60;99.90;;;;;;21224648;28;20226;-70
2022/06/28 11:05:49;;;;;;;0.20;0.00;;;27.40;99.90;;;;;;21217097;28;20219;-73
2022/06/28 11:15:55;;;;;;;0.20;0.10;;;27.90;99.90;;;;;;21202218;28;20215;-76
2022/06/28 11:36:37;;;;;;;0.20;0.00;;;28.50;99.90;;;;;;21213156;28;20249;-70
2022/06/28 11:46:41;;;;;;;0.20;0.05;;;29.20;99.90;;;;;;21219962;28;20223;-71
2022/06/28 11:56:48;;;;;;;0.20;0.00;;;29.70;99.90;;;;;;21217045;28;20203;-71
2022/06/28 12:06:51;;;;;;;0.20;0.00;;;30.50;99.90;;;;;;21217781;28;20216;-71
2022/06/28 12:17:01;;;;;;;0.20;0.00;;;30.90;99.90;;;;;;21216127;28;20239;-71
2022/06/28 12:27:05;;;;;;;0.20;0.00;;;30.80;99.90;;;;;;21227301;28;20218;-72
2022/06/28 12:37:11;;;;;;;0.20;0.00;;;31.20;99.90;;;;;;21235486;28;20219;-72
2022/06/28 12:47:16;;;;;;;0.20;0.00;;;30.90;99.90;;;;;;21232986;28;20768;-72
2022/06/28 12:57:21;;;;;;;0.20;0.00;;;31.60;99.90;;;;;;21232362;28;20345;-71
2022/06/28 13:07:25;;;;;;;0.20;0.00;;;31.70;99.90;;;;;;21229598;28;20207;-71
2022/06/28 13:17:30;;;;;;;0.20;0.00;;;32.30;99.90;;;;;;21228879;28;20262;-71
2022/06/28 13:27:34;;;;;;;0.20;0.00;;;32.40;99.90;;;;;;21226545;28;20227;-72
2022/06/28 13:37:39;;;;;;;0.20;0.00;;;31.70;99.90;;;;;;21229047;28;20227;-71
2022/06/28 13:47:44;;;;;;;0.20;0.00;;;32.20;99.90;;;;;;21229307;28;20222;-72
2022/06/28 13:57:50;;;;;;;0.20;0.00;;;32.40;99.90;;;;;;21226303;28;20245;-73
2022/06/28 14:07:54;;;;;;;0.20;0.00;;;32.00;99.90;;;;;;21206988;28;20188;-69
2022/06/28 14:17:59;;;;;;;0.20;0.00;;;31.50;99.90;;;;;;21222770;28;20226;-69
2022/06/28 14:28:03;;;;;;;0.20;0.00;;;30.90;99.90;;;;;;21225163;28;20207;-70
2022/06/28 14:38:09;;;;;;;0.20;0.03;;;32.70;99.90;;;;;;21222006;28;20219;-72
2022/06/28 14:48:13;;;;;;;0.20;0.00;;;32.90;99.90;;;;;;21220559;28;20550;-70
2022/06/28 14:58:19;;;;;;;0.20;0.00;;;32.60;99.90;;;;;;21217884;28;20559;-71
2022/06/28 15:08:22;;;;;;;0.20;0.00;;;32.80;99.90;;;;;;21222333;28;20199;-71
2022/06/28 15:18:28;;;;;;;0.20;0.00;;;33.60;99.90;;;;;;21219237;28;20286;-71
2022/06/28 15:38:55;;;;;;;0.20;0.00;;;31.50;99.90;;;;;;21217846;28;20242;-70
2022/06/28 15:48:59;;;;;;;0.20;0.00;;;32.10;99.90;;;;;;21217685;28;20210;-71
2022/06/28 15:59:04;;;;;;;0.20;0.00;;;32.00;99.90;;;;;;21222595;28;20235;-70
2022/06/28 16:09:08;;;;;;;0.20;0.00;;;32.40;99.90;;;;;;21236340;28;20183;-72
2022/06/28 16:19:14;;;;;;;0.20;0.00;;;32.00;99.90;;;;;;21232577;28;20315;-73
2022/06/28 16:29:38;;;;;;;0.20;0.00;;;32.30;99.90;;;;;;21147790;28;20208;-72
2022/06/28 16:39:47;;;;;;;0.20;0.00;;;31.20;99.90;;;;;;21148373;28;20249;-71
2022/06/28 16:49:51;;;;;;;0.20;0.00;;;31.10;99.90;;;;;;21147008;28;20282;-71
2022/06/28 16:59:57;;;;;;;0.20;0.00;;;30.70;99.90;;;;;;21140056;28;20239;-73
2022/06/28 17:10:02;;;;;;;0.20;0.00;;;32.70;99.90;;;;;;21143279;28;20195;-72
2022/06/28 17:20:11;;;;;;;0.20;0.00;;;33.60;99.90;;;;;;21142509;28;20240;-71
2022/06/28 17:30:15;;;;;;;0.20;0.00;;;32.30;99.90;;;;;;21146225;28;20219;-71
2022/06/28 17:40:20;;;;;;;0.20;0.00;;;31.70;99.90;;;;;;21185810;28;20227;-70
2022/06/28 17:50:25;;;;;;;0.20;0.00;;;31.20;99.90;;;;;;21227590;28;20214;-70
2022/06/28 18:00:30;;;;;;;0.20;0.00;;;30.50;99.90;;;;;;21223951;28;20282;-71
2022/06/28 18:10:34;;;;;;;0.20;0.00;;;30.40;99.90;;;;;;21225439;28;20203;-72
2022/06/28 18:20:40;;;;;;;0.20;0.00;;;30.10;99.90;;;;;;21217249;28;20311;-71
2022/06/28 18:30:43;;;;;;;0.20;0.00;;;29.80;99.90;;;;;;21220117;28;20274;-73
2022/06/28 18:40:49;;;;;;;0.20;0.00;;;29.50;99.90;;;;;;21219922;28;20279;-72
2022/06/28 18:51:02;;;;;;;0.20;0.00;;;29.40;99.90;;;;;;21215682;28;20710;-74
2022/06/28 19:01:11;;;;;;;0.20;0.10;;;29.50;99.90;;;;;;21191915;28;20253;-74
2022/06/28 19:11:15;;;;;;;0.20;0.00;;;28.10;99.90;;;;;;21218467;28;20202;-74
2022/06/28 19:21:22;;;;;;;0.20;0.00;;;27.10;99.90;;;;;;21214234;28;20231;-73
2022/06/28 19:31:26;;;;;;;0.20;0.00;;;26.50;99.90;;;;;;21213774;28;20191;-72
2022/06/28 19:41:32;;;;;;;0.20;0.00;;;26.70;99.90;;;;;;21210776;28;20276;-74
2022/06/28 19:51:35;;;;;;;0.20;0.10;;;26.30;99.90;;;;;;21214374;28;20203;-72
2022/06/28 20:01:41;;;;;;;0.20;0.10;;;25.90;99.90;;;;;;21213917;28;20219;-72
2022/06/28 20:11:45;;;;;;;0.20;0.00;;;25.60;99.90;;;;;;21213879;28;20210;-72
2022/06/28 20:21:50;;;;;;;0.20;0.10;;;25.70;99.90;;;;;;21195818;28;20234;-73
2022/06/28 20:31:54;;;;;;;0.20;0.00;;;25.60;99.90;;;;;;21215632;28;20191;-73
2022/06/28 20:42:20;;;;;;;0.20;0.00;;;25.60;99.90;;;;;;21211793;28;20211;-72
2022/06/28 20:52:25;;;;;;;0.20;0.00;;;25.60;99.90;;;;;;21227682;28;20188;-72
2022/06/28 21:02:30;;;;;;;0.20;0.00;;;25.40;99.90;;;;;;21229180;28;20223;-72
2022/06/28 21:12:34;;;;;;;0.20;0.00;;;24.90;99.90;;;;;;21228957;28;20245;-72
2022/06/28 21:22:39;;;;;;;0.20;0.00;;;24.70;99.90;;;;;;21228003;28;20272;-71
2022/06/28 21:32:43;;;;;;;0.20;0.00;;;24.20;99.90;;;;;;21226963;28;20253;-72
2022/06/28 21:42:48;;;;;;;0.20;0.00;;;24.20;99.90;;;;;;21220484;28;20245;-72
2022/06/28 21:52:52;;;;;;;0.20;0.00;;;24.00;99.90;;;;;;21224042;28;20209;-71
2022/06/28 22:02:58;;;;;;;0.20;0.00;;;24.20;99.90;;;;;;21217253;28;20282;-72
2022/06/28 22:13:02;;;;;;;0.20;0.00;;;24.20;99.90;;;;;;21222421;28;20203;-73
2022/06/28 22:23:07;;;;;;;0.20;0.00;;;24.40;99.90;;;;;;21221753;28;20234;-71
2022/06/28 22:33:13;;;;;;;0.20;0.00;;;24.40;99.90;;;;;;21224047;28;20232;-72
2022/06/28 22:43:18;;;;;;;0.20;0.00;;;24.20;99.90;;;;;;21221798;28;20243;-72
2022/06/28 22:53:22;;;;;;;0.20;0.00;;;23.70;99.90;;;;;;21223126;28;20247;-70
2022/06/28 23:03:27;;;;;;;0.20;0.00;;;23.10;99.90;;;;;;21225304;28;20291;-72
2022/06/28 23:13:33;;;;;;;0.20;0.00;;;23.00;99.90;;;;;;21221330;28;20205;-71
2022/06/28 23:23:38;;;;;;;0.20;0.00;;;22.70;99.90;;;;;;21223293;28;20247;-72
2022/06/28 23:33:42;;;;;;;0.20;0.00;;;22.60;99.90;;;;;;21222521;28;20195;-72
2022/06/28 23:43:47;;;;;;;0.20;0.10;;;22.30;99.90;;;;;;21223983;28;20261;-72
